Eagle (EGE/KEGE)

Map

Destinations

Information

Location
Eagle, CO
Local Time
17:42 / 5:42 pm
GMT Time
23:42 / 11:42 pm
Gates
Unassigned
No FAA reported delays
METAR KEGE 232256Z 05012KT 10SM OVC095 09/06 A2993 RMK AO2 SLP119 T00890061
TAF KEGE 231743Z 2318/2418 25009KT P6SM -RA BKN060 OVC110 FM231900 25006KT P6SM -RA VCTS BKN045CB FM232300 22007KT P6SM -RA VCTS SCT045CB BKN060 FM240300 VRB03KT P6SM VCSH SCT045 BKN060 FM240700 00000KT P6SM VCSH FEW045 SCT070 FM240900 00000KT P6SM FEW050 SCT